Погода Бела-Виста-ди-Гоясна 2 недели

Гояс, Бразилия

19 июля-01 августа
  • 19июля
    Сегодня
    +16°
    +30°
    Ясно и безоблачно
    ВремяПогодаТемператураВлажностьДавлениеВетер, м/сВероятность осадков
    00:00Ясно и безоблачно+19°C48 %695 мм3.4 м/с5 %
    03:00Ясно и безоблачно+17°C54 %694 мм2.6 м/с5 %
    06:00Ясно и безоблачно+15°C60 %694 мм2.4 м/с5 %
    09:00Ясно и безоблачно+21°C41 %697 мм2.6 м/с5 %
    12:00Ясно и безоблачно+27°C29 %698 мм3.7 м/с5 %
    15:00Ясно и безоблачно+30°C25 %696 мм2.0 м/с5 %
    18:00Ясно и безоблачно+27°C35 %696 мм1.9 м/с5 %
    21:00Ясно и безоблачно+24°C37 %696 мм3.6 м/с5 %
  • 20июля
    Суббота
    +16°
    +31°
    Ясно и безоблачно
    ВремяПогодаТемператураВлажностьДавлениеВетер, м/сВероятность осадков
    00:00Ясно и безоблачно+20°C42 %696 мм3.6 м/с5 %
    03:00Ясно и безоблачно+18°C46 %694 мм2.9 м/с5 %
    06:00Ясно и безоблачно+16°C48 %694 мм2.9 м/с5 %
    09:00Ясно и безоблачно+22°C36 %697 мм3.5 м/с5 %
    12:00Ясно и безоблачно+27°C27 %697 мм3.7 м/с5 %
    15:00Ясно и безоблачно+30°C24 %695 мм2.5 м/с5 %
    18:00Ясно и безоблачно+26°C35 %694 мм2.1 м/с5 %
    21:00Ясно и безоблачно+23°C38 %695 мм4.3 м/с5 %
  • 21июля
    Воскресенье
    +16°
    +30°
    Ясно и безоблачно
    ВремяПогодаТемператураВлажностьДавлениеВетер, м/сВероятность осадков
    00:00Ясно и безоблачно+20°C45 %695 мм4.0 м/с5 %
    03:00Ясно и безоблачно+17°C52 %693 мм3.8 м/с5 %
    06:00Ясно и безоблачно+17°C57 %693 мм3.5 м/с5 %
    09:00Ясно и безоблачно+22°C42 %696 мм4.3 м/с5 %
    12:00Ясно и безоблачно+27°C26 %696 мм4.6 м/с5 %
    15:00Ясно и безоблачно+30°C24 %694 мм3.1 м/с5 %
    18:00Ясно и безоблачно+27°C29 %694 мм2.3 м/с5 %
    21:00Ясно и безоблачно+23°C38 %695 мм3.5 м/с5 %
  • 22июля
    Понедельник
    +16°
    +30°
    Ясно и безоблачно
    ВремяПогодаТемператураВлажностьДавлениеВетер, м/сВероятность осадков
    00:00Ясно и безоблачно+20°C47 %695 мм4.8 м/с5 %
    03:00Ясно и безоблачно+18°C50 %694 мм4.1 м/с5 %
    06:00Ясно и безоблачно+16°C53 %694 мм3.2 м/с5 %
    09:00Ясно и безоблачно+21°C38 %697 мм3.7 м/с5 %
    12:00Ясно и безоблачно+27°C27 %697 мм3.6 м/с5 %
    15:00Ясно и безоблачно+30°C25 %696 мм2.7 м/с5 %
    18:00Ясно и безоблачно+26°C35 %695 мм1.9 м/с5 %
    21:00Ясно и безоблачно+23°C43 %696 мм3.9 м/с5 %
  • 23июля
    Вторник
    +16°
    +31°
    Ясно и безоблачно
    ВремяПогодаТемператураВлажностьДавлениеВетер, м/сВероятность осадков
    00:00Ясно и безоблачно+20°C49 %696 мм3.5 м/с5 %
    03:00Ясно и безоблачно+18°C55 %694 мм3.2 м/с5 %
    06:00Ясно и безоблачно+17°C59 %695 мм2.9 м/с5 %
    09:00Ясно и безоблачно+22°C44 %697 мм3.1 м/с5 %
    12:00Ясно и безоблачно+27°C29 %697 мм4.0 м/с5 %
    15:00Ясно и безоблачно+30°C24 %696 мм3.2 м/с5 %
    18:00Ясно и безоблачно+27°C31 %695 мм2.0 м/с5 %
    21:00Ясно и безоблачно+23°C38 %696 мм3.8 м/с5 %
Мы используем cookies
Соглашаюсь